createdAt,value
2018-04-14T00:02:10.027Z,8.00
2018-04-14T00:04:43.511Z,8.10
2018-04-14T00:07:15.335Z,8.00
2018-04-14T00:09:47.099Z,8.25
2018-04-14T00:12:19.121Z,7.85
2018-04-14T00:14:50.326Z,7.12
2018-04-14T00:17:21.530Z,6.72
2018-04-14T00:19:53.335Z,6.37
2018-04-14T00:22:26.070Z,5.70
2018-04-14T00:25:00.288Z,6.65
2018-04-14T00:27:33.301Z,6.55
2018-04-14T00:30:04.551Z,6.60
2018-04-14T00:32:35.768Z,6.12
2018-04-14T00:35:07.787Z,6.15
2018-04-14T00:37:41.117Z,6.82
2018-04-14T00:40:12.919Z,5.82
2018-04-14T00:42:44.301Z,6.30
2018-04-14T00:45:18.414Z,6.00
2018-04-14T00:47:50.204Z,6.43
2018-04-14T00:50:23.727Z,6.18
2018-04-14T00:52:56.053Z,5.72
2018-04-14T00:55:28.117Z,6.40
2018-04-14T00:58:01.175Z,5.62
2018-04-14T01:00:32.576Z,6.57
2018-04-14T01:03:03.567Z,6.03
2018-04-14T01:05:34.472Z,5.60
2018-04-14T01:08:07.108Z,6.72
2018-04-14T01:10:39.167Z,6.72
2018-04-14T01:13:10.672Z,6.18
2018-04-14T01:15:43.180Z,6.10
2018-04-14T01:18:14.029Z,6.87
2018-04-14T01:20:45.535Z,6.37
2018-04-14T01:23:16.750Z,5.43
2018-04-14T01:25:48.796Z,5.75
2018-04-14T01:28:21.451Z,5.87
2018-04-14T01:30:53.441Z,6.18
2018-04-14T01:33:25.254Z,6.70
2018-04-14T01:35:57.987Z,6.37
2018-04-14T01:38:29.490Z,6.15
2018-04-14T01:41:01.523Z,5.85
2018-04-14T01:43:33.774Z,5.80
2018-04-14T01:46:05.726Z,6.62
2018-04-14T01:48:37.477Z,5.78
2018-04-14T01:51:10.047Z,6.57
2018-04-14T01:53:41.839Z,5.85
2018-04-14T01:56:15.233Z,6.28
2018-04-14T01:58:46.924Z,5.72
2018-04-14T02:01:18.447Z,6.20
2018-04-14T02:03:51.405Z,6.07
2018-04-14T02:06:23.785Z,6.53
2018-04-14T02:08:56.896Z,5.55
2018-04-14T02:11:28.824Z,5.20
2018-04-14T02:14:02.199Z,5.90
2018-04-14T02:16:34.066Z,5.85
2018-04-14T02:19:05.671Z,5.70
2018-04-14T02:21:37.044Z,5.18
2018-04-14T02:24:10.205Z,4.90
2018-04-14T02:26:43.094Z,4.97
2018-04-14T02:29:15.487Z,5.15
2018-04-14T02:31:47.853Z,5.28
2018-04-14T02:34:20.023Z,5.20
2018-04-14T02:36:51.479Z,5.30
2018-04-14T02:39:23.382Z,5.97
2018-04-14T02:41:56.886Z,5.07
2018-04-14T02:44:27.943Z,5.40
2018-04-14T02:46:59.093Z,4.68
2018-04-14T02:49:32.264Z,4.80
2018-04-14T02:52:04.984Z,4.50
2018-04-14T02:54:38.082Z,4.30
2018-04-14T02:57:10.181Z,5.03
2018-04-14T02:59:42.535Z,4.55
2018-04-14T03:02:14.199Z,4.65
2018-04-14T03:04:47.431Z,5.20
2018-04-14T03:07:19.342Z,4.55
2018-04-14T03:09:50.425Z,4.72
2018-04-14T03:12:23.339Z,4.95
2018-04-14T03:14:58.752Z,4.85
2018-04-14T03:17:31.951Z,4.40
2018-04-14T03:20:03.452Z,4.62
2018-04-14T03:22:36.680Z,4.55
2018-04-14T03:25:09.840Z,4.57
2018-04-14T03:27:42.699Z,4.18
2018-04-14T03:30:16.197Z,4.00
2018-04-14T03:32:47.482Z,4.55
2018-04-14T03:35:20.172Z,3.78
2018-04-14T03:37:51.733Z,3.87
2018-04-14T03:40:23.304Z,4.00
2018-04-14T03:42:54.773Z,3.70
2018-04-14T03:45:26.520Z,3.50
2018-04-14T03:47:57.649Z,4.05
2018-04-14T03:50:30.414Z,3.72
2018-04-14T03:53:03.242Z,3.55
2018-04-14T03:55:34.148Z,3.83
2018-04-14T03:58:06.282Z,3.47
2018-04-14T04:00:38.859Z,3.35
2018-04-14T04:03:10.719Z,3.33
2018-04-14T04:05:44.364Z,2.87
2018-04-14T04:08:16.865Z,3.28
2018-04-14T04:10:53.059Z,3.15
2018-04-14T04:13:26.248Z,2.58
2018-04-14T04:16:00.740Z,2.78
2018-04-14T04:18:45.779Z,2.30
2018-04-14T04:21:30.807Z,2.50
2018-04-14T04:24:14.167Z,2.75
2018-04-14T04:26:46.815Z,2.58
2018-04-14T04:29:18.930Z,2.60
2018-04-14T04:31:51.333Z,2.58
2018-04-14T04:34:24.703Z,2.28
2018-04-14T04:36:56.494Z,2.22
2018-04-14T04:39:28.422Z,2.47
2018-04-14T04:42:02.888Z,2.10
2018-04-14T04:44:34.210Z,1.87
2018-04-14T04:47:05.987Z,1.52
2018-04-14T04:49:37.161Z,1.75
2018-04-14T04:52:10.940Z,1.60
2018-04-14T04:54:44.743Z,1.73
2018-04-14T04:57:16.931Z,1.58
2018-04-14T04:59:48.411Z,1.45
2018-04-14T05:02:19.609Z,1.55
2018-04-14T05:04:51.449Z,1.42
2018-04-14T05:07:23.178Z,1.40
2018-04-14T05:09:57.153Z,1.30
2018-04-14T05:12:28.766Z,1.40
2018-04-14T05:15:01.074Z,1.50
2018-04-14T05:17:32.615Z,1.30
2018-04-14T05:20:06.100Z,1.58
2018-04-14T05:22:38.943Z,1.42
2018-04-14T05:25:10.325Z,1.45
2018-04-14T05:27:41.407Z,1.50
2018-04-14T05:30:12.763Z,1.58
2018-04-14T05:32:44.520Z,1.75
2018-04-14T05:35:17.576Z,1.70
2018-04-14T05:37:50.885Z,1.30
2018-04-14T05:40:22.786Z,1.40
2018-04-14T05:42:54.090Z,1.58
2018-04-14T05:45:26.504Z,1.33
2018-04-14T05:47:59.123Z,1.40
2018-04-14T05:50:32.369Z,1.40
2018-04-14T05:53:03.762Z,1.37
2018-04-14T05:55:35.963Z,1.50
2018-04-14T05:58:08.279Z,1.50
2018-04-14T06:00:42.129Z,1.12
2018-04-14T06:03:13.449Z,1.73
2018-04-14T06:05:45.139Z,1.65
2018-04-14T06:08:17.867Z,1.20
2018-04-14T06:10:49.915Z,1.00
2018-04-14T06:13:23.048Z,1.23
2018-04-14T06:15:55.923Z,1.00
2018-04-14T06:18:28.734Z,1.20
2018-04-14T06:21:00.143Z,1.35
2018-04-14T06:23:32.869Z,1.17
2018-04-14T06:26:05.674Z,1.40
2018-04-14T06:28:41.069Z,1.08
2018-04-14T06:31:18.043Z,1.17
2018-04-14T06:33:50.686Z,1.30
2018-04-14T06:36:24.187Z,0.93
2018-04-14T06:38:56.336Z,1.48
2018-04-14T06:41:28.468Z,1.20
2018-04-14T06:44:02.207Z,1.00
2018-04-14T06:46:33.742Z,0.90
2018-04-14T06:49:09.647Z,1.30
2018-04-14T06:51:41.575Z,1.20
2018-04-14T06:54:13.362Z,1.42
2018-04-14T06:56:46.074Z,1.40
2018-04-14T06:59:18.350Z,1.15
2018-04-14T07:01:50.557Z,1.37
2018-04-14T07:04:22.128Z,1.35
2018-04-14T07:06:55.001Z,1.27
2018-04-14T07:09:27.636Z,1.40
2018-04-14T07:11:59.536Z,1.20
2018-04-14T07:14:31.191Z,1.20
2018-04-14T07:17:04.387Z,1.20
2018-04-14T07:19:38.151Z,1.42
2018-04-14T07:22:10.320Z,1.58
2018-04-14T07:24:41.284Z,1.70
2018-04-14T07:27:12.992Z,2.17
2018-04-14T07:29:46.138Z,2.00
2018-04-14T07:32:19.178Z,2.08
2018-04-14T07:34:51.101Z,1.90
2018-04-14T07:37:23.809Z,1.83
2018-04-14T07:39:54.932Z,1.77
2018-04-14T07:42:27.147Z,1.80
2018-04-14T07:44:59.778Z,0.90
2018-04-14T07:47:31.848Z,0.80
2018-04-14T07:50:03.391Z,1.07
2018-04-14T07:52:34.771Z,0.83
2018-04-14T07:55:06.350Z,0.97
2018-04-14T07:57:38.361Z,0.73
2018-04-14T08:00:11.671Z,0.80
2018-04-14T08:02:43.728Z,0.50
2018-04-14T08:05:16.523Z,0.80
2018-04-14T08:07:48.904Z,0.80
2018-04-14T08:10:22.148Z,0.63
2018-04-14T08:12:55.387Z,0.60
2018-04-14T08:15:27.388Z,0.80
2018-04-14T08:18:00.511Z,0.90
2018-04-14T08:20:32.245Z,0.90
2018-04-14T08:23:04.166Z,0.90
2018-04-14T08:25:36.063Z,0.90
2018-04-14T08:28:07.758Z,0.93
2018-04-14T08:30:39.079Z,0.90
2018-04-14T08:33:14.118Z,0.83
2018-04-14T08:35:47.347Z,1.00
2018-04-14T08:38:18.981Z,0.80
2018-04-14T08:40:49.700Z,0.83
2018-04-14T08:43:22.514Z,1.07
2018-04-14T08:45:54.241Z,0.87
2018-04-14T08:48:26.703Z,1.07
2018-04-14T08:50:59.936Z,1.00
2018-04-14T08:53:31.576Z,1.10
2018-04-14T08:56:02.633Z,0.90
2018-04-14T08:58:36.127Z,0.90
2018-04-14T09:01:07.953Z,0.80
2018-04-14T09:03:41.468Z,1.33
2018-04-14T09:06:15.972Z,0.70
2018-04-14T09:08:48.469Z,1.07
2018-04-14T09:11:20.451Z,1.00
2018-04-14T09:13:53.113Z,0.90
2018-04-14T09:16:26.496Z,0.80
2018-04-14T09:18:58.583Z,0.80
2018-04-14T09:21:30.393Z,0.93
2018-04-14T09:24:03.298Z,0.90
2018-04-14T09:26:41.600Z,0.90
2018-04-14T09:29:13.635Z,0.70
2018-04-14T09:31:46.094Z,1.00
2018-04-14T09:34:17.628Z,0.70
2018-04-14T09:36:49.754Z,0.80
2018-04-14T09:39:23.304Z,0.90
2018-04-14T09:41:55.461Z,0.73
2018-04-14T09:44:27.739Z,1.10
2018-04-14T09:47:00.112Z,0.90
2018-04-14T09:49:31.373Z,1.00
2018-04-14T09:52:04.365Z,0.90
2018-04-14T09:54:36.391Z,0.90
2018-04-14T09:57:08.360Z,0.90
2018-04-14T09:59:41.653Z,0.70
2018-04-14T10:02:13.754Z,0.87
2018-04-14T10:04:45.601Z,0.80
2018-04-14T10:07:17.511Z,1.07
2018-04-14T10:09:49.243Z,0.70
2018-04-14T10:12:21.486Z,0.90
2018-04-14T10:14:54.199Z,0.80
2018-04-14T10:17:26.436Z,0.90
2018-04-14T10:19:58.483Z,0.80
2018-04-14T10:22:30.943Z,0.80
2018-04-14T10:25:03.600Z,0.80
2018-04-14T10:27:37.402Z,0.90
2018-04-14T10:30:10.480Z,0.80
2018-04-14T10:32:42.500Z,0.80
2018-04-14T10:37:56.589Z,0.80
2018-04-14T10:40:29.713Z,0.90
2018-04-14T10:43:03.035Z,0.70
2018-04-14T10:45:36.053Z,0.70
2018-04-14T10:48:09.489Z,0.70
2018-04-14T10:50:41.891Z,1.20
2018-04-14T10:53:13.311Z,1.50
2018-04-14T10:55:44.717Z,1.10
2018-04-14T10:58:18.399Z,1.50
2018-04-14T11:00:50.348Z,0.60
2018-04-14T11:03:22.183Z,0.80
2018-04-14T11:05:56.378Z,1.00
2018-04-14T11:08:31.333Z,0.67
2018-04-14T11:11:03.729Z,1.60
2018-04-14T11:13:36.816Z,0.70
2018-04-14T11:16:10.838Z,0.90
2018-04-14T11:18:42.430Z,0.50
2018-04-14T11:21:14.036Z,0.70
2018-04-14T11:23:48.810Z,0.90
2018-04-14T11:26:20.335Z,0.70
2018-04-14T11:28:52.752Z,0.80
2018-04-14T11:31:24.677Z,0.53
2018-04-14T11:33:57.834Z,0.43
2018-04-14T11:36:30.110Z,0.80
2018-04-14T11:39:02.587Z,0.53
2018-04-14T11:41:36.590Z,0.67
2018-04-14T11:44:10.041Z,0.60
2018-04-14T11:46:42.670Z,0.40
2018-04-14T11:49:15.073Z,0.80
2018-04-14T11:51:46.599Z,0.50
2018-04-14T11:54:19.207Z,0.60
2018-04-14T11:56:51.153Z,0.70
2018-04-14T11:59:24.317Z,0.80
2018-04-14T12:01:56.379Z,0.60
2018-04-14T12:04:28.533Z,0.70
2018-04-14T12:07:00.936Z,0.60
2018-04-14T12:09:33.252Z,0.60
2018-04-14T12:12:05.899Z,0.90
2018-04-14T12:14:41.679Z,0.70
2018-04-14T12:17:13.921Z,0.50
2018-04-14T12:19:45.854Z,0.60
2018-04-14T12:22:17.188Z,0.53
2018-04-14T12:24:48.645Z,0.60
2018-04-14T12:27:21.015Z,0.60
2018-04-14T12:29:53.367Z,0.57
2018-04-14T12:32:25.188Z,0.67
2018-04-14T12:34:56.569Z,0.70
2018-04-14T12:37:30.147Z,0.70
2018-04-14T12:40:02.218Z,0.80
2018-04-14T12:42:33.530Z,0.80
2018-04-14T12:45:05.973Z,0.70
2018-04-14T12:47:39.518Z,0.67
2018-04-14T12:50:11.482Z,0.60
2018-04-14T12:52:44.233Z,0.80
2018-04-14T12:55:16.806Z,0.90
2018-04-14T12:57:48.438Z,0.80
2018-04-14T13:00:21.039Z,0.90
2018-04-14T13:02:51.831Z,0.83
2018-04-14T13:05:23.696Z,0.70
2018-04-14T13:07:56.611Z,0.90
2018-04-14T13:10:29.609Z,1.10
2018-04-14T13:13:02.159Z,1.00
2018-04-14T13:15:33.795Z,0.90
2018-04-14T13:18:06.960Z,0.93
2018-04-14T13:20:40.663Z,0.90
2018-04-14T13:23:15.460Z,0.90
2018-04-14T13:25:48.764Z,0.90
2018-04-14T13:28:21.822Z,0.80
2018-04-14T13:30:53.936Z,1.00
2018-04-14T13:33:27.474Z,1.00
2018-04-14T13:36:00.084Z,1.00
2018-04-14T13:38:32.664Z,1.10
2018-04-14T13:41:04.968Z,1.10
2018-04-14T13:43:36.751Z,1.10
2018-04-14T13:46:09.430Z,0.93
2018-04-14T13:48:41.139Z,0.93
2018-04-14T13:51:12.891Z,0.93
2018-04-14T13:53:45.628Z,0.90
2018-04-14T13:56:18.170Z,1.00
2018-04-14T13:58:51.921Z,0.90
2018-04-14T14:01:24.827Z,1.03
2018-04-14T14:03:56.454Z,1.37
2018-04-14T14:06:29.083Z,1.30
2018-04-14T14:09:03.057Z,0.90
2018-04-14T14:11:35.684Z,1.00
2018-04-14T14:14:09.043Z,0.90
2018-04-14T14:16:42.651Z,0.93
2018-04-14T14:19:14.768Z,1.50
2018-04-14T14:21:46.431Z,0.90
2018-04-14T14:24:18.581Z,1.20
2018-04-14T14:26:51.803Z,1.00
2018-04-14T14:29:24.471Z,1.00
2018-04-14T14:31:56.873Z,1.07
2018-04-14T14:34:28.807Z,1.10
2018-04-14T14:37:00.563Z,0.90
2018-04-14T14:39:33.114Z,1.30
2018-04-14T14:42:04.876Z,1.00
2018-04-14T14:44:37.199Z,1.03
2018-04-14T14:47:09.722Z,1.00
2018-04-14T14:49:42.630Z,1.03
2018-04-14T14:52:15.014Z,1.00
2018-04-14T14:54:47.477Z,0.80
2018-04-14T14:57:19.570Z,1.27
2018-04-14T14:59:52.923Z,1.17
2018-04-14T15:02:27.519Z,1.20
2018-04-14T15:04:59.678Z,1.27
2018-04-14T15:07:33.499Z,1.40
2018-04-14T15:10:06.547Z,1.10
2018-04-14T15:12:40.636Z,1.30
2018-04-14T15:15:13.498Z,1.03
2018-04-14T15:17:45.766Z,1.30
2018-04-14T15:20:20.726Z,1.40
2018-04-14T15:22:53.260Z,1.20
2018-04-14T15:25:24.334Z,1.37
2018-04-14T15:27:55.992Z,1.40
2018-04-14T15:30:27.995Z,1.53
2018-04-14T15:32:59.551Z,1.47
2018-04-14T15:35:32.730Z,1.10
2018-04-14T15:38:04.855Z,1.03
2018-04-14T15:40:36.615Z,1.30
2018-04-14T15:43:09.348Z,1.13
2018-04-14T15:45:42.402Z,8.10
2018-04-14T15:48:14.663Z,3.10
2018-04-14T15:50:46.920Z,5.97
2018-04-14T15:53:18.644Z,2.50
2018-04-14T15:55:50.836Z,68.20
2018-04-14T15:58:23.963Z,3.50
2018-04-14T16:00:56.971Z,4.10
2018-04-14T16:03:29.991Z,1.77
2018-04-14T16:06:01.544Z,2.67
2018-04-14T16:08:33.336Z,3.37
2018-04-14T16:11:05.366Z,1.33
2018-04-14T16:13:36.911Z,1.80
2018-04-14T16:16:08.535Z,1.17
2018-04-14T16:18:40.914Z,1.40
2018-04-14T16:21:14.344Z,1.20
2018-04-14T16:23:46.003Z,1.37
2018-04-14T16:26:17.673Z,1.27
2018-04-14T16:28:49.990Z,1.40
2018-04-14T16:31:22.264Z,0.90
2018-04-14T16:33:54.191Z,1.30
2018-04-14T16:36:27.518Z,1.30
2018-04-14T16:38:59.231Z,2.00
2018-04-14T16:41:30.342Z,1.70
2018-04-14T16:44:04.226Z,4.10
2018-04-14T16:46:36.140Z,4.87
2018-04-14T16:49:07.264Z,5.07
2018-04-14T16:51:40.167Z,3.37
2018-04-14T16:54:11.570Z,4.30
2018-04-14T16:56:43.223Z,3.03
2018-04-14T16:59:14.926Z,2.07
2018-04-14T17:01:48.075Z,2.07
2018-04-14T17:04:20.879Z,3.83
2018-04-14T17:06:52.596Z,3.00
2018-04-14T17:09:25.746Z,2.80
2018-04-14T17:11:58.199Z,2.50
2018-04-14T17:14:30.644Z,3.20
2018-04-14T17:17:03.157Z,4.57
2018-04-14T17:19:36.311Z,3.70
2018-04-14T17:22:08.702Z,3.20
2018-04-14T17:24:42.171Z,2.80
2018-04-14T17:27:14.686Z,3.53
2018-04-14T17:29:47.126Z,3.10
2018-04-14T17:32:19.783Z,3.53
2018-04-14T17:34:52.758Z,3.77
2018-04-14T17:37:25.153Z,3.00
2018-04-14T17:39:57.050Z,3.30
2018-04-14T17:42:29.037Z,3.53
2018-04-14T17:45:02.192Z,4.37
2018-04-14T17:47:36.543Z,4.93
2018-04-14T17:50:08.803Z,4.20
2018-04-14T17:52:40.277Z,4.50
2018-04-14T17:55:12.463Z,4.60
2018-04-14T17:57:46.222Z,8.75
2018-04-14T18:00:19.505Z,8.60
2018-04-14T18:02:51.450Z,7.43
2018-04-14T18:05:25.755Z,7.10
2018-04-14T18:07:58.746Z,6.30
2018-04-14T18:10:32.373Z,7.10
2018-04-14T18:13:04.427Z,7.20
2018-04-14T18:15:35.542Z,5.47
2018-04-14T18:18:07.241Z,5.07
2018-04-14T18:20:40.208Z,7.32
2018-04-14T18:23:12.003Z,5.40
2018-04-14T18:25:44.493Z,6.68
2018-04-14T18:28:17.787Z,6.40
2018-04-14T18:30:50.143Z,7.82
2018-04-14T18:33:22.200Z,11.57
2018-04-14T18:35:55.364Z,9.60
2018-04-14T18:38:27.889Z,11.82
2018-04-14T18:41:01.089Z,15.52
2018-04-14T18:43:33.300Z,11.85
2018-04-14T18:46:05.470Z,11.15
2018-04-14T18:48:40.001Z,14.20
2018-04-14T18:51:12.667Z,19.92
2018-04-14T18:53:47.396Z,25.20
2018-04-14T18:56:19.873Z,24.50
2018-04-14T18:58:59.622Z,24.92
2018-04-14T19:01:33.411Z,24.60
2018-04-14T19:04:05.255Z,21.02
2018-04-14T19:06:37.856Z,21.62
2018-04-14T19:09:11.903Z,19.83
2018-04-14T19:11:43.075Z,26.45
2018-04-14T19:14:15.587Z,32.08
2018-04-14T19:16:48.339Z,20.30
2018-04-14T19:19:23.664Z,24.80
2018-04-14T19:21:56.784Z,32.92
2018-04-14T19:24:30.162Z,33.92
2018-04-14T19:27:03.200Z,26.65
2018-04-14T19:29:35.190Z,32.75
2018-04-14T19:32:06.594Z,28.92
2018-04-14T19:34:38.535Z,32.50
2018-04-14T19:37:11.451Z,34.97
2018-04-14T19:39:44.341Z,29.20
2018-04-14T19:42:17.083Z,31.80
2018-04-14T19:44:48.772Z,29.27
2018-04-14T19:47:22.504Z,30.23
2018-04-14T19:49:55.794Z,27.80
2018-04-14T19:52:28.891Z,25.77
2018-04-14T19:55:02.436Z,21.15
2018-04-14T19:57:33.967Z,22.85
2018-04-14T20:00:06.372Z,21.02
2018-04-14T20:02:38.373Z,18.45
2018-04-14T20:05:11.540Z,18.67
2018-04-14T20:07:44.381Z,18.30
2018-04-14T20:10:16.934Z,17.48
2018-04-14T20:12:48.302Z,17.60
2018-04-14T20:15:20.359Z,20.37
2018-04-14T20:17:53.053Z,13.38
2018-04-14T20:20:25.983Z,13.55
2018-04-14T20:22:59.471Z,13.23
2018-04-14T20:25:32.466Z,11.63
2018-04-14T20:28:05.483Z,11.18
2018-04-14T20:30:37.048Z,10.43
2018-04-14T20:33:10.861Z,9.32
2018-04-14T20:35:46.787Z,9.55
2018-04-14T20:38:18.730Z,8.00
2018-04-14T20:40:52.219Z,9.25
2018-04-14T20:43:24.204Z,9.30
2018-04-14T20:45:57.850Z,9.30
2018-04-14T20:48:30.247Z,9.60
2018-04-14T20:51:01.643Z,10.77
2018-04-14T20:53:33.678Z,11.07
2018-04-14T20:56:07.179Z,11.15
2018-04-14T20:58:39.999Z,9.48
2018-04-14T21:01:12.923Z,10.15
2018-04-14T21:03:44.129Z,10.95
2018-04-14T21:06:15.796Z,11.55
2018-04-14T21:08:51.328Z,12.98
2018-04-14T21:11:24.985Z,12.73
2018-04-14T21:13:58.360Z,12.40
2018-04-14T21:16:31.486Z,13.15
2018-04-14T21:19:03.189Z,11.63
2018-04-14T21:21:36.403Z,10.95
2018-04-14T21:24:08.494Z,10.07
2018-04-14T21:26:40.759Z,11.00
2018-04-14T21:29:14.247Z,9.60
2018-04-14T21:31:46.799Z,11.50
2018-04-14T21:34:19.559Z,10.73
2018-04-14T21:36:53.339Z,11.02
2018-04-14T21:39:26.076Z,10.60
2018-04-14T21:41:57.827Z,10.18
2018-04-14T21:44:29.078Z,9.68
2018-04-14T21:47:00.551Z,8.85
2018-04-14T21:49:33.232Z,10.23
2018-04-14T21:52:04.291Z,10.13
2018-04-14T21:54:35.655Z,10.50
2018-04-14T21:57:08.974Z,10.35
2018-04-14T21:59:41.423Z,10.10
2018-04-14T22:02:13.481Z,10.80
2018-04-14T22:04:46.645Z,10.27
2018-04-14T22:07:18.187Z,10.63
2018-04-14T22:09:49.995Z,9.90
2018-04-14T22:12:22.051Z,10.40
2018-04-14T22:14:53.626Z,10.57
2018-04-14T22:17:25.367Z,9.38
2018-04-14T22:19:59.430Z,10.10
2018-04-14T22:22:31.458Z,9.65
2018-04-14T22:25:03.607Z,9.88
2018-04-14T22:27:36.579Z,10.70
2018-04-14T22:30:10.136Z,10.60
2018-04-14T22:32:42.821Z,10.18
2018-04-14T22:35:14.515Z,9.55
2018-04-14T22:37:47.022Z,10.82
2018-04-14T22:40:19.268Z,9.30
2018-04-14T22:42:52.603Z,10.77
2018-04-14T22:45:24.650Z,9.82
2018-04-14T22:47:57.794Z,10.30
2018-04-14T22:50:30.227Z,10.65
2018-04-14T22:53:02.720Z,11.60
2018-04-14T22:55:35.579Z,10.77
2018-04-14T22:58:06.922Z,28.30
2018-04-14T23:00:39.027Z,16.67
2018-04-14T23:03:11.843Z,12.68
2018-04-14T23:05:43.912Z,11.05
2018-04-14T23:08:16.667Z,11.05
2018-04-14T23:10:49.598Z,10.70
2018-04-14T23:13:23.584Z,10.15
2018-04-14T23:15:57.328Z,9.60
2018-04-14T23:18:28.426Z,10.80
2018-04-14T23:21:02.759Z,11.45
2018-04-14T23:23:37.184Z,9.63
2018-04-14T23:26:10.015Z,10.45
2018-04-14T23:28:44.410Z,11.45
2018-04-14T23:31:17.191Z,10.77
2018-04-14T23:33:48.223Z,10.85
2018-04-14T23:36:21.102Z,10.90
2018-04-14T23:38:55.393Z,10.20
2018-04-14T23:41:27.891Z,10.70
2018-04-14T23:44:01.089Z,10.65
2018-04-14T23:46:35.700Z,9.35
2018-04-14T23:49:08.727Z,9.88
2018-04-14T23:51:41.723Z,9.10
2018-04-14T23:54:14.072Z,10.13
2018-04-14T23:56:47.357Z,12.23
2018-04-14T23:59:20.044Z,12.13
